Página principal
METAR-TAF:

METAR-TAF

Aeroportos :

Madrid-Getafe, Espanha

latitude: 40-18N, longitude: 003-43W, altura: 620 m

Observação actual do tempo

O boletim foi feito há 1 hora e 51 minutos, às 18:00 UTC
Vento 2 kt de este
Temperatura 7°C
Humidade 53%
Pressão 1030 hPa
Visibilidade 10 km ou mais
sem nuvens abaixo de 1500 metros e sem cumulonimbus

METAR: LEGT 171800Z 09002KT CAVOK 07/M02 Q1030

Hora: 20:51 (19:51 UTC)

Previsão

O boletim foi feito há 2 horas e 51 minutos, às 17:00 UTC
Previsão válida de 17 às 18 UTC a 18 às 18 UTC
Vento 4 kt com direcção variável
Visibilidade 10 km ou mais
sem nuvens abaixo de 1500 metros e sem cumulonimbus

TAF: LEGT 171700Z 1718/1818 VRB04KT CAVOK TX12/1815Z TNM03/1807Z

Observações e previsões do tempo de mais de 4000 aeroportos (mensagens METAR e TAF).

As estações disponíveis são os pontos amarelos e vermelhos sobre o mapa.

Mova o rato sobre o mapa para ver o nome da estação.

Depois clique no ponto para visualizar as observações e previsões meteorológicas.

Para alterar o mapa : clique nos botões verdes com uma cruz preta para aumentar o zoom; no botão verde com uma pitada de zoom; ou nas setas verdes para mapas adjacentes.


METAR-TAF: